DW8024 Cheadle Hulme UK current weather conditions

sailwx.info

Wind from 288 at 11 knots gusting 19

Air temperature 13.3° C
Dewpoint 5.5° C

Last reported at 2020-Jun-05 14:00 UTC.
Time now 2020-Jun-05 15:00 UTC

Location: N 53°22' W 002°12'.
View on Google Maps.

See reports from other nearby stations

  
Tides and Currents Weather Stations Pressure Air Temp Water Temp Dewpoint Dewpoint Depression Visibility Wind Speed Wind Dir Waves Ship Positions
date/time (UTC)wind fromknots sea level pressurealtimeterstation pressurevisibilityair tempwater tempwave heightnotes
2020-Jun-05 14:00 288 11 gusting 19 13.3
2020-Jun-05 13:55 295 13 gusting 26 13.3
2020-Jun-05 13:50 292 13 gusting 26 13.9
2020-Jun-05 13:45 297 12 gusting 22 13.3
2020-Jun-05 13:40 296 12 gusting 22 13.3
2020-Jun-05 13:35 284 13 gusting 27 12.8
2020-Jun-05 13:30 290 13 gusting 27 13.3
2020-Jun-05 13:25 295 13 gusting 27 13.3
2020-Jun-05 13:15 280 12 gusting 21 13.3
2020-Jun-05 13:10 284 12 gusting 22 13.3
2020-Jun-05 13:05 295 12 gusting 25 13.3
2020-Jun-05 13:00 303 12 gusting 25 13.9
2020-Jun-05 12:55 299 12 gusting 21 13.9
2020-Jun-05 12:50 297 12 gusting 21 13.9
2020-Jun-05 12:45 297 12 gusting 20 13.3
2020-Jun-05 12:40 298 13 gusting 20 13.3
2020-Jun-05 12:35 292 12 gusting 22 13.3
2020-Jun-05 12:30 288 11 gusting 22 13.3
2020-Jun-05 12:25 288 12 gusting 20 13.3
2020-Jun-05 12:20 287 13 gusting 21 13.3
2020-Jun-05 12:15 293 11 gusting 21 13.3
2020-Jun-05 12:10 296 10 gusting 19 12.8
2020-Jun-05 12:05 302 11 gusting 19 12.8
2020-Jun-05 12:00 310 13 gusting 19 12.8
2020-Jun-05 11:55 306 12 gusting 24 13.3
2020-Jun-05 11:50 298 10 gusting 24 13.3
2020-Jun-05 11:45 295 10 gusting 19 13.3
2020-Jun-05 11:40 295 11 gusting 19 13.3
2020-Jun-05 11:35 296 12 gusting 21 13.3
2020-Jun-05 11:30 295 11 gusting 22 13.3
2020-Jun-05 11:25 288 12 gusting 22 12.8
2020-Jun-05 11:20 293 13 gusting 21 12.2
2020-Jun-05 11:15 302 12 gusting 19 12.2
2020-Jun-05 11:10 300 11 gusting 19 12.2
2020-Jun-05 11:05 294 10 gusting 19 11.7
2020-Jun-05 11:00 295 9 gusting 18 11.7
2020-Jun-05 10:55 297 9 gusting 17 11.7
2020-Jun-05 10:50 299 8 gusting 17 11.1
2020-Jun-05 10:40 296 6 gusting 13 10.6
2020-Jun-05 10:35 296 6 gusting 12 10.6
2020-Jun-05 10:30 295 8 gusting 14 10.6
2020-Jun-05 10:25 296 7 gusting 14 10.6
2020-Jun-05 10:20 303 6 gusting 13 10.0
2020-Jun-05 10:15 300 5 gusting 9 9.4
2020-Jun-05 10:10 294 5 gusting 10 8.3
2020-Jun-05 10:05 296 6 gusting 10 8.3
2020-Jun-05 10:00 294 7 gusting 17 8.3
2020-Jun-05 09:55 291 7 gusting 17 8.3
2020-Jun-05 09:50 297 6 gusting 13 8.9
2020-Jun-05 09:45 306 7 gusting 18 9.4
2020-Jun-05 09:40 310 6 gusting 18 10.0
2020-Jun-05 09:35 294 3 gusting 6 10.0
2020-Jun-05 09:30 270 3 gusting 6 10.6
2020-Jun-05 09:25 290 3 gusting 7 10.6
2020-Jun-05 09:20 305 3 gusting 7 10.6
2020-Jun-05 09:15 305 4 gusting 7 10.6
2020-Jun-05 09:10 312 6 gusting 13 10.0
2020-Jun-05 09:05 310 5 gusting 13 10.0
2020-Jun-05 09:00 293 4 gusting 8 10.0
2020-Jun-05 08:55 291 5 gusting 8 10.0
2020-Jun-05 08:50 281 5 gusting 9 10.6
2020-Jun-05 08:45 271 4 gusting 9 10.6
2020-Jun-05 08:40 290 4 gusting 9 10.0
2020-Jun-05 08:35 308 4 gusting 9 9.4
2020-Jun-05 08:30 305 5 gusting 10 9.4
2020-Jun-05 08:25 304 5 gusting 11 9.4
2020-Jun-05 08:20 300 6 gusting 13 9.4
2020-Jun-05 08:15 292 6 gusting 13 8.9
2020-Jun-05 08:10 286 5 gusting 11 8.9
2020-Jun-05 08:05 291 4 gusting 10 8.9
2020-Jun-05 07:55 285 5 gusting 9 9.4
2020-Jun-05 07:50 286 5 gusting 10 9.4
2020-Jun-05 07:45 293 4 gusting 10 9.4
2020-Jun-05 07:40 302 4 gusting 8 9.4
2020-Jun-05 07:35 304 3 gusting 8 9.4
2020-Jun-05 07:30 309 2 gusting 6 9.4
2020-Jun-05 07:25 309 3 gusting 7 9.4
2020-Jun-05 07:20 306 5 gusting 7 9.4
2020-Jun-05 07:15 307 4 gusting 7 9.4
2020-Jun-05 07:10 307 4 gusting 8 9.4
2020-Jun-05 07:05 307 5 gusting 8 9.4
2020-Jun-05 07:00 310 4 gusting 7 9.4
2020-Jun-05 06:55 311 3 gusting 7 8.9
2020-Jun-05 06:50 315 3 gusting 6 8.9
2020-Jun-05 06:45 314 3 gusting 6 8.9
2020-Jun-05 06:40 310 3 gusting 6 8.9
2020-Jun-05 06:35 319 3 gusting 6 8.9
2020-Jun-05 06:30 322 3 gusting 7 8.9
2020-Jun-05 06:25 311 3 gusting 7 8.9
2020-Jun-05 06:20 309 3 gusting 6 8.9
2020-Jun-05 06:15 309 3 gusting 6 8.3
2020-Jun-05 06:10 312 3 gusting 6 8.3
2020-Jun-05 06:05 314 3 gusting 7 8.3
2020-Jun-05 06:00 318 2 gusting 7 8.3
2020-Jun-05 05:55 325 2 gusting 3 8.3
2020-Jun-05 05:50 327 1 gusting 3 8.3
2020-Jun-05 05:45 338 1 gusting 5 8.3
2020-Jun-05 05:40 338 2 gusting 6 8.3
2020-Jun-05 05:30 346 2 gusting 6 8.3
2020-Jun-05 05:25 346 2 gusting 6 8.3
2020-Jun-05 05:20 345 2 gusting 7 8.3
2020-Jun-05 05:10 349 2 gusting 6 8.3
2020-Jun-05 05:05 350 2 gusting 6 8.3
2020-Jun-05 05:00 359 2 gusting 5 8.3
2020-Jun-05 04:55 006 3 gusting 9 8.3
2020-Jun-05 04:50 359 4 gusting 9 8.3
2020-Jun-05 04:45 358 5 gusting 10 8.3
2020-Jun-05 04:40 003 5 gusting 12 8.3
2020-Jun-05 04:35 006 6 gusting 12 8.3
2020-Jun-05 04:25 011 8 gusting 15 8.9
2020-Jun-05 04:20 334 9 gusting 21 9.4
2020-Jun-05 04:15 296 8 gusting 21 9.4
2020-Jun-05 04:10 276 5 gusting 13 9.4
2020-Jun-05 04:05 280 4 gusting 8 9.4
2020-Jun-05 03:55 303 4 gusting 8 9.4
2020-Jun-05 03:50 293 5 gusting 10 9.4
2020-Jun-05 03:40 276 6 gusting 13 10.0
2020-Jun-05 03:35 277 6 gusting 13 10.0
2020-Jun-05 03:25 270 5 gusting 12 10.0
2020-Jun-05 03:15 274 5 gusting 9 10.0
2020-Jun-05 03:10 273 6 gusting 12 10.0
2020-Jun-05 03:00 280 6 gusting 13 10.0
2020-Jun-05 02:55 279 5 gusting 12 10.0
2020-Jun-05 02:45 274 6 gusting 12 10.0
2020-Jun-05 02:40 274 6 gusting 14 10.0
2020-Jun-05 02:35 278 6 gusting 14 10.0
2020-Jun-05 02:25 279 7 gusting 13 10.0
2020-Jun-05 02:20 281 8 gusting 17 10.0
2020-Jun-05 02:10 284 8 gusting 14 10.0
2020-Jun-05 02:05 285 9 gusting 17 10.0
2020-Jun-05 02:00 284 7 gusting 17 10.0
2020-Jun-05 01:55 282 6 gusting 17 10.0
2020-Jun-05 01:45 277 7 gusting 16 10.0
2020-Jun-05 01:40 278 7 gusting 13 10.0
2020-Jun-05 01:35 281 7 gusting 13 10.0
2020-Jun-05 01:25 272 7 gusting 14 10.0
2020-Jun-05 01:15 279 7 gusting 14 10.0
2020-Jun-05 01:10 279 6 gusting 13 10.0
2020-Jun-05 01:05 282 6 gusting 14 10.0
2020-Jun-05 00:55 277 6 gusting 13 10.6
2020-Jun-05 00:50 278 6 gusting 13 10.6
2020-Jun-05 00:40 278 7 gusting 18 10.6
2020-Jun-05 00:35 277 7 gusting 13 10.6
2020-Jun-05 00:25 277 6 gusting 15 10.6
2020-Jun-05 00:20 276 6 gusting 12 10.6
2020-Jun-05 00:10 278 6 gusting 13 10.6
2020-Jun-05 00:05 281 5 gusting 13 10.6
2020-Jun-04 23:55 283 6 gusting 11 10.6
2020-Jun-04 23:50 283 6 gusting 12 10.6
2020-Jun-04 23:40 281 6 gusting 13 10.6
2020-Jun-04 23:35 286 6 gusting 13 10.6
2020-Jun-04 23:25 283 6 gusting 10 10.6
2020-Jun-04 23:20 282 6 gusting 10 10.6
2020-Jun-04 23:10 282 4 gusting 10 10.6
2020-Jun-04 23:05 279 4 gusting 10 10.6
2020-Jun-04 22:55 284 4 gusting 9 10.6
2020-Jun-04 22:50 284 6 gusting 11 10.6
2020-Jun-04 22:45 282 6 gusting 11 10.6
2020-Jun-04 22:40 276 6 gusting 10 10.6
2020-Jun-04 22:35 276 5 gusting 9 11.1
2020-Jun-04 22:25 278 6 gusting 11 11.1
2020-Jun-04 22:15 278 6 gusting 13 11.1
2020-Jun-04 22:10 278 5 gusting 12 11.1
2020-Jun-04 22:05 282 5 gusting 10 11.1
2020-Jun-04 21:55 283 6 gusting 12 11.1
2020-Jun-04 21:50 285 6 gusting 12 11.1
2020-Jun-04 21:40 290 6 gusting 12 11.1
2020-Jun-04 21:35 300 6 gusting 10 11.1
2020-Jun-04 21:25 290 6 gusting 13 11.1
2020-Jun-04 21:20 275 5 gusting 13 11.1
2020-Jun-04 21:10 234 1 gusting 6 11.1
2020-Jun-04 21:05 226 1 gusting 5 11.1
2020-Jun-04 20:55 227 1 gusting 5 11.1
2020-Jun-04 20:50 232 1 gusting 5 11.1
2020-Jun-04 20:40 233 1 gusting 6 11.1
2020-Jun-04 20:35 230 1 gusting 6 11.1
2020-Jun-04 20:25 236 2 gusting 6 11.7
2020-Jun-04 20:20 234 2 gusting 4 11.7
2020-Jun-04 20:10 264 1 gusting 5 11.7
2020-Jun-04 20:05 267 2 gusting 5 11.7
2020-Jun-04 19:55 272 3 gusting 6 11.7
2020-Jun-04 19:45 272 4 gusting 8 11.7
2020-Jun-04 19:40 276 5 gusting 9 11.7
2020-Jun-04 19:35 284 6 gusting 10 11.7
2020-Jun-04 19:25 275 3 gusting 11 11.7
2020-Jun-04 19:20 287 3 gusting 7 11.7
2020-Jun-04 19:10 298 3 gusting 6 11.7
2020-Jun-04 19:05 295 2 gusting 6 11.7
2020-Jun-04 18:55 301 4 gusting 10 11.7
2020-Jun-04 18:50 293 4 gusting 7 11.7
2020-Jun-04 18:40 284 4 gusting 10 11.7
2020-Jun-04 18:35 281 4 gusting 10 11.7
2020-Jun-04 18:25 279 4 gusting 7 11.7
2020-Jun-04 18:20 283 5 gusting 11 11.7
2020-Jun-04 18:10 284 6 gusting 11 11.7
2020-Jun-04 18:05 285 6 gusting 11 12.2
2020-Jun-04 17:55 290 6 gusting 12 12.2
2020-Jun-04 17:50 290 6 gusting 12 12.2
2020-Jun-04 17:40 289 8 gusting 15 12.8
2020-Jun-04 17:35 283 9 gusting 15 12.8
2020-Jun-04 17:25 286 8 gusting 14 13.3
2020-Jun-04 17:20 279 9 gusting 17 13.3
2020-Jun-04 17:10 287 6 gusting 13 13.3
2020-Jun-04 17:05 285 6 gusting 10 13.3
2020-Jun-04 16:55 285 6 gusting 13 13.3
2020-Jun-04 16:50 289 6 gusting 13 13.3
2020-Jun-04 16:40 287 7 gusting 15 13.3
2020-Jun-04 16:35 288 7 gusting 15 13.9
2020-Jun-04 16:25 295 6 gusting 12 13.9
2020-Jun-04 16:20 296 8 gusting 13 13.9
2020-Jun-04 16:10 282 8 gusting 16 13.9
2020-Jun-04 16:05 278 6 gusting 12 13.9
2020-Jun-04 15:55 280 8 gusting 13 14.4
2020-Jun-04 15:50 283 8 gusting 13 14.4
2020-Jun-04 15:40 282 9 gusting 15 15.0
2020-Jun-04 15:35 290 8 gusting 15 15.6
2020-Jun-04 15:25 288 9 gusting 15 15.0
2020-Jun-04 15:20 278 9 gusting 15 15.0
2020-Jun-04 15:10 289 7 gusting 13 15.0
2020-Jun-04 15:05 297 6 gusting 13 15.0
2020-Jun-04 14:55 284 9 gusting 16 14.4
2020-Jun-04 14:50 280 7 gusting 16 14.4
2020-Jun-04 14:40 276 8 gusting 15 14.4
2020-Jun-04 14:35 281 7 gusting 14 13.9
2020-Jun-04 14:25 289 8 gusting 17 13.3
2020-Jun-04 14:20 286 8 gusting 14 13.3
2020-Jun-04 14:10 287 9 gusting 16 13.3
2020-Jun-04 14:05 284 8 gusting 16 12.8
2020-Jun-04 13:55 280 6 gusting 13 13.3
2020-Jun-04 13:50 282 6 gusting 13 13.3
2020-Jun-04 13:40 279 6 gusting 12 13.3
2020-Jun-04 13:35 280 6 gusting 11 12.8
2020-Jun-04 13:30 280 6 gusting 13 12.2
2020-Jun-04 13:25 286 6 gusting 13 12.2
2020-Jun-04 13:20 291 6 gusting 13 12.2
2020-Jun-04 13:10 296 3 gusting 10 12.2
2020-Jun-04 13:05 315 2 gusting 4 12.2
2020-Jun-04 12:55 312 2 gusting 6 12.2
2020-Jun-04 12:50 313 2 gusting 6 12.2
2020-Jun-04 12:40 314 4 gusting 10 12.2
2020-Jun-04 12:35 311 5 gusting 11 12.2
2020-Jun-04 12:25 302 6 gusting 13 12.2
2020-Jun-04 12:20 296 6 gusting 13 12.2
2020-Jun-04 12:15 298 7 gusting 13 12.2
2020-Jun-04 12:10 294 7 gusting 14 12.2
2020-Jun-04 12:05 297 6 gusting 14 11.7
2020-Jun-04 12:00 308 6 gusting 12 11.7
2020-Jun-04 11:55 308 5 gusting 9 11.7
2020-Jun-04 11:50 301 6 gusting 13 11.7
2020-Jun-04 11:40 309 6 gusting 14 12.2
2020-Jun-04 11:35 308 6 gusting 13 12.8
2020-Jun-04 11:30 294 3 gusting 9 12.8
2020-Jun-04 11:25 253 1 gusting 6 12.2
2020-Jun-04 11:20 304 1 gusting 4 12.2
2020-Jun-04 11:10 261 2 gusting 6 11.7
2020-Jun-04 11:05 211 1 gusting 3 11.7
2020-Jun-04 10:55 212 1 gusting 3 10.6
2020-Jun-04 10:50 199 1 gusting 6 10.6
2020-Jun-04 10:40 200 1 gusting 3 10.6
2020-Jun-04 10:35 194 1 gusting 3 10.6
2020-Jun-04 10:25 187 2 gusting 6 10.0
2020-Jun-04 10:20 195 2 gusting 6 10.0
2020-Jun-04 10:15 212 2 gusting 5 10.0
2020-Jun-04 10:10 207 2 gusting 6 10.0
2020-Jun-04 10:05 204 2 gusting 6 10.0
2020-Jun-04 09:55 186 2 gusting 6 10.0
2020-Jun-04 09:50 177 3 gusting 7 10.0
2020-Jun-04 09:40 183 3 gusting 6 10.0
2020-Jun-04 09:35 177 2 gusting 6 10.0
2020-Jun-04 09:25 181 3 gusting 6 10.0
2020-Jun-04 09:20 176 3 gusting 6 10.0
2020-Jun-04 09:10 195 2 gusting 6 10.0
2020-Jun-04 09:05 223 1 gusting 6 10.0
2020-Jun-04 09:00 234 1 gusting 6 10.0
2020-Jun-04 08:55 220 2 gusting 8 10.0
2020-Jun-04 08:50 225 3 gusting 8 10.0
2020-Jun-04 08:40 241 2 gusting 7 10.0
2020-Jun-04 08:35 218 2 gusting 7 10.0
2020-Jun-04 08:30 214 2 gusting 6 10.0
2020-Jun-04 08:25 224 2 gusting 6 10.0
2020-Jun-04 08:20 208 1 gusting 5 10.0
2020-Jun-04 08:10 164 2 gusting 4 10.0
2020-Jun-04 08:05 169 2 gusting 5 10.0
2020-Jun-04 08:00 171 2 gusting 5 10.0
2020-Jun-04 07:55 166 2 gusting 4 10.0
2020-Jun-04 07:50 177 2 gusting 4 10.0
2020-Jun-04 07:45 158 2 gusting 3 10.0
2020-Jun-04 07:40 152 2 gusting 4 10.0
2020-Jun-04 07:35 168 2 gusting 4 10.0
2020-Jun-04 07:30 168 2 gusting 4 10.0
2020-Jun-04 07:25 169 2 gusting 4 10.0
2020-Jun-04 07:20 166 2 gusting 4 10.0
2020-Jun-04 07:15 157 2 gusting 4 9.4
2020-Jun-04 07:10 146 2 gusting 4 9.4
2020-Jun-04 07:05 151 2 gusting 4 9.4
2020-Jun-04 06:55 172 0 gusting 2 9.4
2020-Jun-04 06:50 172 0 gusting 2 9.4
2020-Jun-04 06:45 9.4
2020-Jun-04 06:40 9.4
2020-Jun-04 06:35 9.4
2020-Jun-04 06:30 9.4
2020-Jun-04 06:25 9.4
2020-Jun-04 06:20 9.4
2020-Jun-04 06:15 9.4
2020-Jun-04 06:10 9.4
2020-Jun-04 06:05 8.9
2020-Jun-04 06:00 8.9
2020-Jun-04 05:55 8.9
2020-Jun-04 05:50 8.9
2020-Jun-04 05:40 8.9
2020-Jun-04 05:35 8.9
2020-Jun-04 05:30 8.9
2020-Jun-04 05:25 8.9
2020-Jun-04 05:20 8.3
2020-Jun-04 05:10 8.3
2020-Jun-04 05:05 8.3
2020-Jun-04 04:55 036 0 gusting 2 8.3
2020-Jun-04 04:50 036 0 gusting 2 8.3
2020-Jun-04 04:40 036 1 gusting 3 8.3
2020-Jun-04 04:35 016 1 gusting 3 8.3
2020-Jun-04 04:30 346 1 gusting 3 8.3
2020-Jun-04 04:25 8.3
2020-Jun-04 04:20 8.3
2020-Jun-04 04:10 315 0 gusting 2 8.3
2020-Jun-04 04:05 318 1 gusting 4 8.3
2020-Jun-04 03:55 315 2 gusting 4 8.3
2020-Jun-04 03:50 315 2 gusting 4 8.3
2020-Jun-04 03:40 319 2 gusting 4 8.3
2020-Jun-04 03:35 317 2 gusting 4 8.3
2020-Jun-04 03:25 310 1 gusting 4 8.3
2020-Jun-04 03:20 309 1 gusting 3 8.3
2020-Jun-04 03:10 328 2 gusting 6 8.3
2020-Jun-04 03:05 335 2 gusting 6 8.3
2020-Jun-04 02:55 333 2 gusting 5 8.9
2020-Jun-04 02:45 331 2 gusting 7 8.9
2020-Jun-04 02:40 329 2 gusting 7 8.9
2020-Jun-04 02:35 334 3 gusting 7 8.9
2020-Jun-04 02:25 331 2 gusting 6 8.9
2020-Jun-04 02:20 326 2 gusting 6 8.9
2020-Jun-04 02:15 323 2 gusting 5 8.9
2020-Jun-04 02:10 319 1 gusting 3 8.9
2020-Jun-04 02:00 312 1 gusting 2 8.9
2020-Jun-04 01:55 310 1 gusting 3 8.9
2020-Jun-04 01:50 313 2 gusting 3 8.9
2020-Jun-04 01:45 315 2 gusting 4 8.9
2020-Jun-04 01:40 315 2 gusting 6 8.9
2020-Jun-04 01:35 319 2 gusting 6 9.4
2020-Jun-04 01:30 349 2 gusting 6 9.4
2020-Jun-04 01:25 019 2 gusting 6 9.4
2020-Jun-04 01:20 034 2 gusting 6 9.4
2020-Jun-04 01:15 036 2 gusting 6 9.4
2020-Jun-04 01:10 031 2 gusting 6 9.4
2020-Jun-04 01:05 022 2 gusting 5 9.4
2020-Jun-04 01:00 018 2 gusting 5 9.4
2020-Jun-04 00:55 014 2 gusting 5 9.4
2020-Jun-04 00:50 016 2 gusting 5 9.4
2020-Jun-04 00:45 018 1 gusting 5 9.4
2020-Jun-04 00:40 018 1 gusting 6 9.4
2020-Jun-04 00:35 023 2 gusting 6 9.4
2020-Jun-04 00:30 018 2 gusting 5 9.4
2020-Jun-04 00:25 013 2 gusting 5 9.4
2020-Jun-04 00:20 005 2 gusting 6 9.4
2020-Jun-04 00:15 352 2 gusting 6 9.4
2020-Jun-04 00:10 345 2 gusting 7 9.4
2020-Jun-04 00:05 346 2 gusting 7 10.0
2020-Jun-04 00:00 356 2 gusting 6 10.0
2020-Jun-03 23:55 006 3 gusting 10 10.0
2020-Jun-03 23:50 008 4 gusting 10 10.0
2020-Jun-03 23:45 006 4 gusting 9 10.0
2020-Jun-03 23:40 358 4 gusting 8 10.6
2020-Jun-03 23:35 356 4 gusting 9 10.6
2020-Jun-03 23:30 002 5 gusting 10 10.6
2020-Jun-03 23:25 355 4 gusting 11 10.6
2020-Jun-03 23:20 350 4 gusting 11 10.6
2020-Jun-03 23:15 358 4 gusting 12 10.6
2020-Jun-03 23:10 357 4 gusting 12 10.6
2020-Jun-03 23:05 346 3 gusting 7 10.6
2020-Jun-03 23:00 353 3 gusting 9 10.6
2020-Jun-03 22:55 002 4 gusting 9 10.6
2020-Jun-03 22:50 001 3 gusting 7 10.6
2020-Jun-03 22:45 359 2 gusting 6 10.6
2020-Jun-03 22:40 006 2 gusting 6 10.6
2020-Jun-03 22:35 007 2 gusting 6 10.0
2020-Jun-03 22:30 010 2 gusting 6 10.0
2020-Jun-03 22:25 016 1 gusting 5 10.0
2020-Jun-03 22:20 012 1 gusting 5 10.0
2020-Jun-03 22:15 016 1 gusting 5 10.0
2020-Jun-03 22:10 017 1 gusting 3 10.0
2020-Jun-03 22:05 014 0 gusting 3 9.4
2020-Jun-03 22:00 9.4
2020-Jun-03 21:55 005 0 gusting 1 9.4
2020-Jun-03 21:50 005 0 gusting 1 9.4
2020-Jun-03 21:45 005 0 gusting 1 9.4
2020-Jun-03 21:40 005 0 gusting 1 9.4
2020-Jun-03 21:35 004 0 gusting 2 9.4
2020-Jun-03 21:30 004 1 gusting 3 9.4
2020-Jun-03 21:25 359 0 gusting 3 9.4
2020-Jun-03 21:20 356 0 gusting 2 9.4
2020-Jun-03 21:15 355 0 gusting 3 9.4
2020-Jun-03 21:10 356 1 gusting 3 9.4
2020-Jun-03 21:05 353 1 gusting 4 10.0
2020-Jun-03 21:00 337 1 gusting 4 10.0
2020-Jun-03 20:55 322 1 gusting 5 10.0
2020-Jun-03 20:50 326 1 gusting 5 10.6
2020-Jun-03 20:45 337 1 gusting 3 10.6
2020-Jun-03 20:40 001 1 gusting 3 10.6
2020-Jun-03 20:35 019 1 gusting 3 11.1
2020-Jun-03 20:30 012 1 gusting 5 11.1
2020-Jun-03 20:25 359 2 gusting 6 11.1
2020-Jun-03 20:20 002 3 gusting 7 11.1
2020-Jun-03 20:15 357 3 gusting 7 11.1
2020-Jun-03 20:10 359 3 gusting 6 11.1
2020-Jun-03 20:05 016 4 gusting 7 11.7
2020-Jun-03 20:00 017 4 gusting 7 11.7
2020-Jun-03 19:55 021 3 gusting 8 11.7
2020-Jun-03 19:50 028 4 gusting 8 11.7
2020-Jun-03 19:45 018 5 gusting 12 11.7
2020-Jun-03 19:40 015 6 gusting 12 11.7
2020-Jun-03 19:35 014 6 gusting 12 11.7
2020-Jun-03 19:30 007 6 gusting 9 11.7
2020-Jun-03 19:25 006 6 gusting 11 11.7
2020-Jun-03 19:20 011 5 gusting 11 11.7
2020-Jun-03 19:15 013 4 gusting 8 11.7
2020-Jun-03 19:10 015 4 gusting 8 11.7
2020-Jun-03 19:05 014 4 gusting 9 11.7
2020-Jun-03 19:00 015 5 gusting 12 11.7
2020-Jun-03 18:55 009 6 gusting 12 11.7
2020-Jun-03 18:50 357 5 gusting 11 11.7
2020-Jun-03 18:45 357 5 gusting 11 11.7
2020-Jun-03 18:40 357 4 gusting 11 11.7
2020-Jun-03 18:35 357 3 gusting 11 11.7
2020-Jun-03 18:30 008 4 gusting 9 11.7
2020-Jun-03 18:25 017 4 gusting 9 11.7
2020-Jun-03 18:20 022 5 gusting 9 11.7
2020-Jun-03 18:15 024 5 gusting 10 11.7
2020-Jun-03 18:10 022 5 gusting 10 11.7
2020-Jun-03 18:05 024 5 gusting 11 11.7
2020-Jun-03 18:00 021 5 gusting 11 11.7
2020-Jun-03 17:55 016 5 gusting 11 11.7
2020-Jun-03 17:50 017 6 gusting 11 11.7
2020-Jun-03 17:45 017 6 gusting 11 11.7
2020-Jun-03 17:40 016 5 gusting 11 11.7
2020-Jun-03 17:35 010 5 gusting 11 11.7
2020-Jun-03 17:30 008 4 gusting 11 11.7
2020-Jun-03 17:25 014 3 gusting 8 11.7
2020-Jun-03 17:20 010 4 gusting 9 11.7
2020-Jun-03 17:15 013 5 gusting 10 11.7
2020-Jun-03 17:10 013 5 gusting 10 11.7
2020-Jun-03 17:05 013 6 gusting 14 11.1
2020-Jun-03 17:00 016 5 gusting 14 11.1
2020-Jun-03 16:55 003 4 gusting 11 11.1
2020-Jun-03 16:50 002 3 gusting 11 11.1
2020-Jun-03 16:45 014 3 gusting 7 11.1
2020-Jun-03 16:40 012 5 gusting 13 11.1
2020-Jun-03 16:35 011 5 gusting 13 11.1
2020-Jun-03 16:30 013 5 gusting 10 11.1
2020-Jun-03 16:25 015 6 gusting 13 11.1
2020-Jun-03 16:20 010 6 gusting 14 11.1
2020-Jun-03 16:15 001 6 gusting 14 11.1
2020-Jun-03 16:10 359 6 gusting 12 11.1
2020-Jun-03 16:05 358 5 gusting 12 11.1
2020-Jun-03 16:00 005 5 gusting 11 11.1
2020-Jun-03 15:55 019 5 gusting 11 11.7
2020-Jun-03 15:50 030 6 gusting 12 11.7
2020-Jun-03 15:45 029 6 gusting 12 11.7
2020-Jun-03 15:40 028 6 gusting 11 11.7
2020-Jun-03 15:35 031 6 gusting 13 11.7
2020-Jun-03 15:30 032 6 gusting 13 11.7
2020-Jun-03 15:25 027 7 gusting 14 11.7
2020-Jun-03 15:20 017 8 gusting 14 11.7
2020-Jun-03 15:15 011 7 gusting 13 11.7
2020-Jun-03 15:10 023 6 gusting 13 11.7
2020-Jun-03 15:05 029 7 gusting 13 11.7
2020-Jun-03 15:00 023 8 gusting 14 11.7